createdAt,value
2022-10-17T00:19:07.641Z,54.56
2022-10-17T00:19:55.605Z,54.66
2022-10-17T00:20:17.472Z,54.70
2022-10-17T00:20:39.045Z,54.68
2022-10-17T00:21:00.615Z,54.61
2022-10-17T00:21:24.829Z,54.74
2022-10-17T00:21:48.719Z,54.61
2022-10-17T00:22:10.276Z,54.66
2022-10-17T00:22:32.886Z,54.62
2022-10-17T00:22:54.481Z,54.45
2022-10-17T00:23:16.170Z,54.41
2022-10-17T00:23:37.730Z,54.28
2022-10-17T00:24:01.168Z,54.34
2022-10-17T00:24:22.740Z,54.18
2022-10-17T00:24:44.296Z,54.29
2022-10-17T00:25:06.711Z,54.24
2022-10-17T00:25:29.187Z,54.26
2022-10-17T00:25:58.176Z,54.27
2022-10-17T00:26:20.769Z,54.30
2022-10-17T00:26:43.380Z,54.14
2022-10-17T00:27:04.932Z,54.26
2022-10-17T00:27:27.198Z,54.04
2022-10-17T00:27:48.926Z,54.14
2022-10-17T00:28:10.959Z,54.11
2022-10-17T00:28:33.964Z,54.05
2022-10-17T00:28:56.331Z,54.01
2022-10-17T00:29:17.951Z,53.97
2022-10-17T00:29:42.327Z,53.76
2022-10-17T00:30:05.230Z,53.97
2022-10-17T00:30:27.826Z,53.87
2022-10-17T00:30:55.660Z,53.92
2022-10-17T00:31:19.839Z,53.88
2022-10-17T00:31:41.534Z,54.00
2022-10-17T00:32:04.116Z,53.88
2022-10-17T00:32:27.300Z,53.85
2022-10-17T00:32:49.079Z,54.05
2022-10-17T00:33:10.615Z,54.01
2022-10-17T00:33:34.437Z,54.10
2022-10-17T00:33:56.150Z,53.86
2022-10-17T00:34:17.714Z,54.07
2022-10-17T00:34:39.557Z,54.07
2022-10-17T00:35:02.228Z,54.15
2022-10-17T00:35:23.908Z,54.03
2022-10-17T00:35:45.501Z,54.08
2022-10-17T00:36:09.512Z,53.99
2022-10-17T00:36:32.036Z,53.85
2022-10-17T00:36:53.603Z,53.99
2022-10-17T00:37:15.199Z,53.95
2022-10-17T00:37:36.849Z,54.00
2022-10-17T00:37:59.420Z,53.95
2022-10-17T00:38:21.204Z,53.90
2022-10-17T00:38:44.492Z,53.86
2022-10-17T00:39:06.057Z,53.92
2022-10-17T00:40:19.168Z,53.92
2022-10-17T00:40:41.975Z,53.92
2022-10-17T00:41:04.355Z,53.86
2022-10-17T00:41:29.116Z,53.95
2022-10-17T00:41:51.911Z,54.00
2022-10-17T01:04:02.556Z,54.31
2022-10-17T01:04:24.213Z,54.47
2022-10-17T01:04:48.762Z,54.39
2022-10-17T01:05:12.006Z,54.46
2022-10-17T01:05:34.007Z,54.37
2022-10-17T01:05:56.864Z,54.20
2022-10-17T01:06:18.701Z,54.15
2022-10-17T01:06:41.300Z,54.19
2022-10-17T01:07:03.311Z,54.26
2022-10-17T01:07:25.426Z,54.18
2022-10-17T01:07:48.970Z,54.23
2022-10-17T01:08:12.930Z,54.29
2022-10-17T01:08:34.721Z,54.31
2022-10-17T01:08:56.682Z,54.29
2022-10-17T01:09:18.575Z,54.13
2022-10-17T01:09:41.438Z,54.16
2022-10-17T01:10:04.961Z,54.21
2022-10-17T01:10:33.199Z,54.04
2022-10-17T01:11:01.709Z,53.92
2022-10-17T01:11:37.557Z,53.80
2022-10-17T01:12:07.492Z,53.88
2022-10-17T01:12:38.500Z,53.92
2022-10-17T01:13:10.134Z,54.20
2022-10-17T01:13:39.519Z,54.09
2022-10-17T01:14:07.252Z,53.99
2022-10-17T01:14:39.065Z,54.06
2022-10-17T01:15:12.109Z,53.96
2022-10-17T01:15:45.357Z,54.07
2022-10-17T01:16:14.938Z,53.87
2022-10-17T01:16:44.833Z,53.94
2022-10-17T01:17:13.480Z,53.76
2022-10-17T01:17:46.038Z,53.83
2022-10-17T01:18:23.891Z,53.94
2022-10-17T01:18:55.942Z,53.99
2022-10-17T01:19:38.413Z,53.82
2022-10-17T01:20:30.460Z,53.85
2022-10-17T01:21:30.328Z,53.66
2022-10-17T01:21:58.622Z,53.64
2022-10-17T01:22:27.157Z,53.58
2022-10-17T01:22:55.384Z,53.81
2022-10-17T01:23:43.402Z,53.72
2022-10-17T01:24:39.288Z,53.49
2022-10-17T01:25:23.652Z,53.37
2022-10-17T01:25:55.172Z,53.45
2022-10-17T01:26:24.654Z,53.53
2022-10-17T01:27:13.560Z,53.33
2022-10-17T01:27:49.904Z,53.43
2022-10-17T01:28:26.856Z,53.69
2022-10-17T01:29:16.370Z,53.41
2022-10-17T01:30:02.935Z,53.37
2022-10-17T01:30:43.770Z,53.35
2022-10-17T01:31:12.003Z,53.35
2022-10-17T01:31:40.295Z,53.24
2022-10-17T01:32:07.391Z,53.37
2022-10-17T01:32:34.437Z,53.38
2022-10-17T01:33:02.268Z,53.51
2022-10-17T01:33:36.756Z,53.27
2022-10-17T01:34:03.786Z,53.30
2022-10-17T01:34:33.302Z,53.27
2022-10-17T01:35:02.020Z,53.19
2022-10-17T01:35:27.893Z,53.15
2022-10-17T01:35:55.000Z,53.01
2022-10-17T01:36:29.355Z,52.99
2022-10-17T01:36:56.075Z,53.01
2022-10-17T01:37:24.748Z,53.06
2022-10-17T01:37:50.612Z,53.02
2022-10-17T01:38:18.749Z,52.96
2022-10-17T01:38:46.549Z,52.99
2022-10-17T01:39:17.280Z,53.00
2022-10-17T01:39:47.690Z,53.10
2022-10-17T01:40:16.113Z,53.26
2022-10-17T01:53:31.132Z,53.61
2022-10-17T01:54:23.885Z,53.65
2022-10-17T01:54:56.704Z,53.68
2022-10-17T01:55:24.806Z,53.69
2022-10-17T01:55:48.939Z,53.55
2022-10-17T01:56:15.591Z,53.57
2022-10-17T01:56:40.351Z,53.55
2022-10-17T01:57:08.983Z,53.41
2022-10-17T01:57:34.541Z,53.41
2022-10-17T01:57:59.353Z,53.44
2022-10-17T01:58:27.112Z,53.44
2022-10-17T01:58:53.920Z,53.50
2022-10-17T01:59:19.541Z,53.30
2022-10-17T01:59:45.891Z,53.34
2022-10-17T02:00:12.520Z,53.36
2022-10-17T02:00:42.465Z,53.31
2022-10-17T02:01:08.073Z,53.30
2022-10-17T02:01:31.549Z,53.29
2022-10-17T02:01:59.434Z,53.38
2022-10-17T02:02:22.227Z,53.29
2022-10-17T02:02:46.519Z,53.18
2022-10-17T02:03:13.430Z,53.16
2022-10-17T02:03:36.619Z,53.15
2022-10-17T02:04:02.712Z,53.32
2022-10-17T02:04:25.261Z,53.46
2022-10-17T02:04:48.485Z,53.36
2022-10-17T02:05:11.433Z,53.08
2022-10-17T02:05:37.543Z,53.00
2022-10-17T02:05:59.143Z,53.06
2022-10-17T02:06:21.953Z,53.15
2022-10-17T02:06:45.833Z,53.11
2022-10-17T02:07:09.280Z,53.16
2022-10-17T02:07:31.828Z,53.06
2022-10-17T02:07:54.509Z,53.04
2022-10-17T02:08:27.073Z,53.02
2022-10-17T02:08:51.329Z,53.16
2022-10-17T02:09:19.231Z,52.92
2022-10-17T02:09:41.041Z,53.01
2022-10-17T02:10:03.716Z,53.10
2022-10-17T02:10:35.648Z,52.94
2022-10-17T02:11:02.653Z,53.17
2022-10-17T02:11:26.255Z,53.00
2022-10-17T02:12:02.735Z,52.96
2022-10-17T02:12:39.395Z,52.98
2022-10-17T02:13:09.241Z,53.03
2022-10-17T02:13:44.207Z,53.13
2022-10-17T02:14:21.324Z,52.91
2022-10-17T02:14:59.115Z,53.02
2022-10-17T02:15:38.982Z,52.98
2022-10-17T02:16:12.097Z,53.07
2022-10-17T02:16:39.723Z,52.88
2022-10-17T02:17:13.739Z,53.01
2022-10-17T02:17:44.832Z,53.00
2022-10-17T02:18:20.347Z,53.09
2022-10-17T02:18:55.680Z,53.12
2022-10-17T02:19:37.941Z,52.99
2022-10-17T02:20:10.320Z,53.14
2022-10-17T02:20:37.265Z,52.95
2022-10-17T02:21:06.121Z,53.04
2022-10-17T02:21:40.992Z,52.92
2022-10-17T02:22:16.397Z,53.28
2022-10-17T02:22:45.977Z,53.36
2022-10-17T02:23:16.212Z,53.15
2022-10-17T02:23:47.100Z,53.21
2022-10-17T02:24:19.541Z,53.07
2022-10-17T02:24:49.040Z,53.13
2022-10-17T02:25:21.504Z,52.95
2022-10-17T02:25:54.165Z,52.96
2022-10-17T02:26:21.044Z,53.22
2022-10-17T02:26:52.235Z,53.16
2022-10-17T02:27:17.124Z,53.21
2022-10-17T02:27:46.709Z,53.07
2022-10-17T02:28:20.878Z,52.95
2022-10-17T02:28:50.777Z,52.98
2022-10-17T02:29:17.925Z,52.82
2022-10-17T02:29:47.656Z,52.96
2022-10-17T02:30:15.650Z,52.90
2022-10-17T02:30:42.524Z,53.22
2022-10-17T02:31:08.803Z,53.23
2022-10-17T02:31:36.416Z,53.04
2022-10-17T02:32:03.817Z,52.97
2022-10-17T02:32:32.173Z,52.87
2022-10-17T02:32:58.638Z,52.83
2022-10-17T02:33:28.635Z,52.74
2022-10-17T02:33:58.476Z,52.75
2022-10-17T02:34:23.728Z,52.78
2022-10-17T02:34:49.218Z,52.59
2022-10-17T02:35:16.380Z,52.53
2022-10-17T02:35:41.892Z,52.53
2022-10-17T02:36:09.095Z,52.58
2022-10-17T02:36:36.600Z,52.56
2022-10-17T02:37:03.348Z,52.60
2022-10-17T02:37:30.195Z,52.49
2022-10-17T02:37:53.235Z,52.39
2022-10-17T02:38:18.120Z,52.54
2022-10-17T02:38:45.192Z,52.28
2022-10-17T02:39:08.799Z,52.46
2022-10-17T02:39:32.133Z,52.22
2022-10-17T02:39:57.019Z,52.36
2022-10-17T02:40:22.813Z,52.49
2022-10-17T02:40:47.501Z,52.40
2022-10-17T02:41:12.653Z,52.46
2022-10-17T02:41:37.458Z,52.37
2022-10-17T02:42:03.535Z,52.40
2022-10-17T02:42:26.714Z,52.49
2022-10-17T02:42:51.430Z,52.18
2022-10-17T02:43:15.339Z,52.44
2022-10-17T02:43:38.048Z,52.23
2022-10-17T02:44:02.420Z,52.25
2022-10-17T02:44:26.519Z,52.30
2022-10-17T02:44:49.950Z,52.33
2022-10-17T02:45:14.595Z,52.39
2022-10-17T02:45:37.758Z,52.31
2022-10-17T02:46:01.134Z,52.28
2022-10-17T02:46:25.661Z,52.22
2022-10-17T02:46:55.936Z,52.42
2022-10-17T02:47:21.768Z,52.31
2022-10-17T02:47:51.675Z,52.09
2022-10-17T02:48:19.792Z,52.34
2022-10-17T02:48:47.662Z,52.43
2022-10-17T02:49:17.185Z,52.33
2022-10-17T02:49:43.839Z,52.34
2022-10-17T02:50:06.596Z,52.28
2022-10-17T02:50:39.720Z,52.33
2022-10-17T02:51:07.680Z,52.18
2022-10-17T02:51:36.964Z,52.27
2022-10-17T02:52:07.267Z,52.25
2022-10-17T02:52:35.248Z,52.08
2022-10-17T02:53:02.973Z,52.20
2022-10-17T02:53:30.212Z,52.29
2022-10-17T02:54:06.624Z,52.12
2022-10-17T02:54:37.087Z,52.38
2022-10-17T02:55:03.298Z,52.04
2022-10-17T02:55:31.268Z,52.11
2022-10-17T02:55:58.844Z,52.10
2022-10-17T02:56:21.633Z,51.99
2022-10-17T02:56:51.357Z,52.00
2022-10-17T02:57:19.790Z,52.10
2022-10-17T02:57:44.863Z,52.08
2022-10-17T02:58:13.459Z,52.19
2022-10-17T02:58:37.390Z,52.02
2022-10-17T02:59:02.095Z,52.18
2022-10-17T02:59:26.528Z,52.15
2022-10-17T02:59:50.208Z,52.13
2022-10-17T03:00:14.267Z,52.18
2022-10-17T03:00:39.105Z,52.46
2022-10-17T03:01:01.141Z,52.28
2022-10-17T03:01:24.904Z,52.37
2022-10-17T03:01:46.919Z,52.22
2022-10-17T03:02:09.624Z,52.26
2022-10-17T03:02:39.133Z,52.32
2022-10-17T03:03:01.341Z,52.17
2022-10-17T03:03:26.148Z,52.20
2022-10-17T03:03:48.926Z,52.14
2022-10-17T03:04:12.885Z,51.94
2022-10-17T03:04:34.904Z,51.93
2022-10-17T03:04:56.713Z,52.05
2022-10-17T03:05:21.345Z,52.11
2022-10-17T03:05:43.858Z,52.13
2022-10-17T03:06:05.661Z,52.22
2022-10-17T03:06:27.244Z,52.16
2022-10-17T03:06:50.381Z,52.19
2022-10-17T03:07:14.555Z,52.06
2022-10-17T03:07:36.147Z,52.18
2022-10-17T03:07:57.803Z,51.91
2022-10-17T03:08:20.297Z,51.98
2022-10-17T03:08:41.899Z,51.91
2022-10-17T03:09:06.474Z,52.00
2022-10-17T03:09:29.308Z,51.93
2022-10-17T03:09:50.999Z,51.99
2022-10-17T03:10:13.022Z,51.78
2022-10-17T03:10:35.563Z,51.86
2022-10-17T03:10:57.125Z,52.08
2022-10-17T03:11:20.208Z,51.87
2022-10-17T03:11:42.021Z,51.86
2022-10-17T03:12:04.670Z,51.92
2022-10-17T03:12:27.468Z,51.91
2022-10-17T03:12:49.401Z,52.00
2022-10-17T03:13:11.128Z,51.74
2022-10-17T03:13:38.958Z,52.03
2022-10-17T03:14:02.585Z,51.88
2022-10-17T03:14:24.349Z,51.91
2022-10-17T03:14:46.208Z,51.73
2022-10-17T03:15:08.787Z,51.77
2022-10-17T03:15:31.420Z,51.53
2022-10-17T03:15:53.524Z,51.64
2022-10-17T03:16:15.109Z,51.88
2022-10-17T03:16:36.687Z,51.82
2022-10-17T03:17:00.319Z,51.91
2022-10-17T03:17:22.049Z,51.75
2022-10-17T03:18:11.635Z,51.80
2022-10-17T03:18:34.187Z,52.01
2022-10-17T03:18:57.652Z,51.95
2022-10-17T03:19:19.260Z,51.77
2022-10-17T03:19:40.832Z,51.95
2022-10-17T03:20:04.950Z,51.72
2022-10-17T03:20:26.542Z,51.79
2022-10-17T03:20:48.592Z,51.76
2022-10-17T03:21:10.226Z,51.71
2022-10-17T03:21:31.862Z,51.98
2022-10-17T03:21:54.449Z,51.84
2022-10-17T03:22:16.707Z,51.82
2022-10-17T03:22:40.615Z,51.76
2022-10-17T03:23:02.294Z,51.82
2022-10-17T03:23:25.217Z,51.65
2022-10-17T03:23:47.379Z,51.68
2022-10-17T03:24:11.315Z,51.75
2022-10-17T03:24:33.618Z,51.56
2022-10-17T03:24:56.196Z,51.61
2022-10-17T03:25:17.800Z,51.59
2022-10-17T03:25:42.480Z,51.62
2022-10-17T03:26:04.272Z,51.72
2022-10-17T03:26:27.285Z,51.65
2022-10-17T03:26:48.941Z,51.63
2022-10-17T03:27:10.678Z,51.67
2022-10-17T03:27:33.458Z,51.62
2022-10-17T03:27:58.630Z,51.54
2022-10-17T03:28:21.204Z,51.60
2022-10-17T03:28:43.018Z,51.75
2022-10-17T03:29:05.143Z,51.52
2022-10-17T03:29:29.295Z,51.52
2022-10-17T03:29:51.372Z,51.36
2022-10-17T03:30:13.059Z,51.57
2022-10-17T03:30:34.921Z,51.28
2022-10-17T03:30:56.975Z,51.54
2022-10-17T03:31:19.501Z,51.41
2022-10-17T03:31:41.869Z,51.51
2022-10-17T03:32:05.179Z,51.43
2022-10-17T03:32:26.801Z,51.60
2022-10-17T03:32:49.042Z,51.78
2022-10-17T03:33:11.620Z,51.67
2022-10-17T03:33:33.387Z,51.70
2022-10-17T03:33:55.013Z,51.71
2022-10-17T03:34:18.661Z,51.77
2022-10-17T03:34:41.354Z,51.79
2022-10-17T03:35:04.599Z,51.78
2022-10-17T03:35:26.842Z,51.77
2022-10-17T03:36:19.038Z,51.80
2022-10-17T03:36:41.660Z,51.95
2022-10-17T03:37:04.029Z,51.81
2022-10-17T03:37:27.547Z,51.96
2022-10-17T03:37:50.615Z,51.89
2022-10-17T03:38:15.972Z,51.94
2022-10-17T03:38:37.999Z,51.83
2022-10-17T03:38:59.865Z,51.88
2022-10-17T03:39:25.111Z,51.88
2022-10-17T03:39:46.843Z,51.98
2022-10-17T03:40:09.481Z,52.01
2022-10-17T03:40:31.035Z,51.88
2022-10-17T03:40:56.172Z,51.81
2022-10-17T03:41:17.870Z,51.95
2022-10-17T03:41:39.753Z,51.87
2022-10-17T03:42:01.409Z,51.95
2022-10-17T03:42:24.650Z,51.71
2022-10-17T03:42:46.220Z,51.96
2022-10-17T03:43:08.307Z,51.79
2022-10-17T03:43:30.208Z,51.70
2022-10-17T03:43:54.561Z,51.54
2022-10-17T03:44:16.569Z,51.54
2022-10-17T03:44:38.137Z,51.55
2022-10-17T03:44:59.882Z,51.80
2022-10-17T03:45:22.506Z,51.71
2022-10-17T03:45:45.152Z,51.73
2022-10-17T03:46:07.336Z,51.58
2022-10-17T03:46:29.773Z,51.64
2022-10-17T03:46:55.506Z,51.66
2022-10-17T03:47:18.081Z,51.58
2022-10-17T03:47:40.481Z,51.43
2022-10-17T03:48:02.085Z,51.47
2022-10-17T03:48:24.833Z,51.65
2022-10-17T03:48:47.532Z,51.43
2022-10-17T03:49:09.840Z,51.29
2022-10-17T03:49:31.418Z,51.34
2022-10-17T03:49:53.696Z,51.40
2022-10-17T03:50:16.024Z,51.15
2022-10-17T03:50:39.555Z,51.17
2022-10-17T03:51:02.617Z,51.35
2022-10-17T03:51:25.097Z,51.17
2022-10-17T03:51:52.375Z,51.28
2022-10-17T03:52:14.549Z,51.14
2022-10-17T03:52:36.152Z,51.22
2022-10-17T03:52:58.245Z,51.18
2022-10-17T03:53:20.804Z,51.06
2022-10-17T03:53:42.616Z,51.50
2022-10-17T03:54:04.369Z,51.32
2022-10-17T03:54:27.377Z,51.29
2022-10-17T03:54:51.120Z,51.10
2022-10-17T03:55:13.280Z,51.17
2022-10-17T03:55:35.281Z,50.97
2022-10-17T03:55:57.578Z,51.22
2022-10-17T03:56:21.470Z,51.03
2022-10-17T03:56:53.273Z,51.18
2022-10-17T03:57:15.333Z,51.25
2022-10-17T03:57:37.154Z,51.13
2022-10-17T03:58:01.116Z,51.15
2022-10-17T03:58:23.192Z,51.36
2022-10-17T03:58:46.473Z,51.22
2022-10-17T03:59:12.938Z,51.45
2022-10-17T03:59:35.570Z,51.26
2022-10-17T04:00:02.025Z,51.12
2022-10-17T04:00:24.655Z,51.14
2022-10-17T04:00:51.009Z,51.22
2022-10-17T04:01:15.045Z,51.14
2022-10-17T04:01:37.754Z,51.01
2022-10-17T04:01:59.367Z,51.16
2022-10-17T04:02:20.990Z,50.90
2022-10-17T04:02:44.921Z,51.10
2022-10-17T04:03:17.126Z,51.03
2022-10-17T04:03:39.717Z,50.89
2022-10-17T04:04:01.674Z,50.97
2022-10-17T04:04:27.481Z,50.81
2022-10-17T04:04:49.075Z,50.97
2022-10-17T04:05:11.052Z,50.97
2022-10-17T04:05:32.625Z,51.11
2022-10-17T04:05:54.464Z,51.22
2022-10-17T04:06:16.975Z,51.06
2022-10-17T04:06:39.057Z,51.09
2022-10-17T04:07:00.771Z,50.92
2022-10-17T04:07:22.496Z,50.94
2022-10-17T04:07:45.153Z,50.90
2022-10-17T04:08:07.586Z,51.15
2022-10-17T04:08:52.047Z,51.20
2022-10-17T04:09:32.159Z,51.03
2022-10-17T04:09:58.899Z,51.10
2022-10-17T04:10:20.562Z,51.08
2022-10-17T04:10:42.780Z,50.83
2022-10-17T04:11:07.793Z,50.75
2022-10-17T04:11:29.677Z,50.83
2022-10-17T04:11:54.601Z,50.92
2022-10-17T04:12:18.344Z,50.84
2022-10-17T04:12:39.919Z,51.03
2022-10-17T04:13:01.535Z,51.00
2022-10-17T04:13:23.135Z,50.89
2022-10-17T04:13:46.688Z,50.88
2022-10-17T04:14:09.805Z,50.87
2022-10-17T04:14:33.088Z,50.89
2022-10-17T04:14:57.281Z,50.91
2022-10-17T04:15:19.838Z,50.87
2022-10-17T04:15:41.501Z,50.91
2022-10-17T04:16:05.855Z,50.91
2022-10-17T04:16:29.223Z,50.80
2022-10-17T04:16:55.136Z,50.99
2022-10-17T04:17:16.708Z,50.99
2022-10-17T04:17:39.067Z,50.92
2022-10-17T04:18:02.818Z,50.96
2022-10-17T04:18:24.792Z,50.90
2022-10-17T04:18:46.848Z,50.85
2022-10-17T04:19:12.525Z,51.01
2022-10-17T04:19:38.087Z,50.98
2022-10-17T04:19:59.693Z,51.04
2022-10-17T04:20:21.569Z,51.09
2022-10-17T04:20:43.748Z,51.04
2022-10-17T04:21:08.115Z,51.06
2022-10-17T04:21:29.818Z,51.10
2022-10-17T04:21:55.138Z,51.13
2022-10-17T04:22:16.966Z,51.23
2022-10-17T04:22:39.601Z,51.14
2022-10-17T04:23:01.199Z,51.10
2022-10-17T04:23:22.921Z,51.14
2022-10-17T04:23:47.388Z,51.17
2022-10-17T04:24:25.111Z,51.14
2022-10-17T04:25:00.576Z,51.30
2022-10-17T04:25:27.842Z,51.24
2022-10-17T04:25:49.671Z,50.94
2022-10-17T04:26:12.278Z,51.31
2022-10-17T04:26:34.295Z,51.33
2022-10-17T04:26:55.979Z,51.27
2022-10-17T04:27:20.283Z,51.26
2022-10-17T04:27:43.894Z,51.28
2022-10-17T04:28:05.579Z,51.17
2022-10-17T04:28:28.518Z,51.09
2022-10-17T04:28:50.586Z,51.20
2022-10-17T04:29:13.117Z,51.30
2022-10-17T04:29:36.475Z,51.33
2022-10-17T04:30:11.795Z,51.22
2022-10-17T04:30:34.032Z,51.46
2022-10-17T04:30:58.181Z,51.46
2022-10-17T04:31:20.198Z,51.49
2022-10-17T04:32:04.860Z,51.52
2022-10-17T04:32:40.289Z,51.60
2022-10-17T04:33:07.696Z,51.42
2022-10-17T04:33:29.444Z,51.35
2022-10-17T04:33:51.206Z,51.16
2022-10-17T04:34:14.796Z,51.26
2022-10-17T04:34:36.404Z,51.00
2022-10-17T04:34:58.051Z,50.91
2022-10-17T04:35:19.614Z,50.96
2022-10-17T04:35:56.467Z,50.82
2022-10-17T04:36:19.848Z,50.83
2022-10-17T04:36:41.448Z,50.70
2022-10-17T04:37:04.225Z,50.69
2022-10-17T04:37:26.089Z,50.84
2022-10-17T04:37:49.612Z,50.82
2022-10-17T04:38:15.217Z,50.67
2022-10-17T04:38:39.112Z,50.58
2022-10-17T04:39:02.771Z,50.50
2022-10-17T04:39:26.624Z,50.52
2022-10-17T04:39:48.237Z,50.57
2022-10-17T04:40:11.803Z,50.67
2022-10-17T04:40:33.481Z,50.46
2022-10-17T04:40:58.212Z,50.49
2022-10-17T04:41:20.808Z,50.48
2022-10-17T04:41:42.393Z,50.46
2022-10-17T04:42:04.086Z,50.25
2022-10-17T04:42:26.743Z,50.58
2022-10-17T04:42:49.042Z,50.46
2022-10-17T04:43:14.540Z,50.54
2022-10-17T04:43:37.874Z,50.65
2022-10-17T04:44:00.588Z,50.73
2022-10-17T04:44:22.975Z,50.68
2022-10-17T04:44:46.901Z,50.73
2022-10-17T04:45:11.299Z,50.36
2022-10-17T04:45:34.182Z,50.78
2022-10-17T04:45:58.480Z,50.65
2022-10-17T04:46:20.028Z,50.72
2022-10-17T04:46:42.654Z,50.79
2022-10-17T04:47:05.223Z,50.73
2022-10-17T04:47:26.822Z,50.83
2022-10-17T04:47:48.393Z,50.82
2022-10-17T04:48:09.965Z,50.57
2022-10-17T04:48:34.525Z,50.57
2022-10-17T04:48:56.178Z,50.49
2022-10-17T04:49:18.161Z,50.63
2022-10-17T04:49:44.053Z,50.55
2022-10-17T04:50:06.742Z,50.69
2022-10-17T04:50:29.871Z,50.95
2022-10-17T04:51:18.807Z,50.82
2022-10-17T04:52:05.689Z,50.67
2022-10-17T04:52:42.616Z,50.66
2022-10-17T04:53:04.184Z,50.80
2022-10-17T04:53:27.172Z,50.93
2022-10-17T04:53:49.633Z,50.72
2022-10-17T04:54:11.262Z,50.78
2022-10-17T04:54:36.221Z,50.80
2022-10-17T04:55:03.440Z,50.63
2022-10-17T04:55:26.452Z,50.64
2022-10-17T04:55:48.104Z,50.70
2022-10-17T04:56:11.665Z,50.85
2022-10-17T04:56:34.349Z,50.72
2022-10-17T04:56:56.027Z,50.71
2022-10-17T04:57:18.577Z,50.64
2022-10-17T04:57:48.863Z,50.66
2022-10-17T04:58:15.675Z,50.55
2022-10-17T04:58:38.856Z,50.72
2022-10-17T04:59:00.584Z,50.73
2022-10-17T04:59:22.182Z,50.85
2022-10-17T04:59:50.086Z,50.94
2022-10-17T05:00:32.992Z,50.58
2022-10-17T05:00:58.648Z,50.44
2022-10-17T05:01:23.738Z,50.62
2022-10-17T05:01:48.830Z,50.81
2022-10-17T05:02:11.401Z,50.60
2022-10-17T05:02:33.159Z,50.84
2022-10-17T05:02:56.691Z,50.76
2022-10-17T05:03:18.308Z,50.68
2022-10-17T05:03:41.345Z,50.63
2022-10-17T05:04:03.155Z,50.61
2022-10-17T05:04:25.287Z,50.76
2022-10-17T05:04:47.770Z,50.90
2022-10-17T05:05:11.205Z,51.00
2022-10-17T05:05:33.181Z,51.21
2022-10-17T05:05:56.283Z,50.93
2022-10-17T05:06:21.005Z,50.83
2022-10-17T05:06:57.699Z,50.88
2022-10-17T05:07:40.954Z,50.92
2022-10-17T05:08:08.491Z,50.77
2022-10-17T05:08:30.188Z,50.65
2022-10-17T05:08:52.332Z,50.69
2022-10-17T05:09:16.020Z,50.45
2022-10-17T05:09:38.173Z,50.55
2022-10-17T05:10:00.217Z,50.56
2022-10-17T05:10:21.993Z,50.76
2022-10-17T05:10:49.659Z,50.51
2022-10-17T05:11:17.124Z,50.66
2022-10-17T05:11:38.711Z,50.50
2022-10-17T05:12:00.320Z,50.43
2022-10-17T05:12:23.867Z,50.38
2022-10-17T05:12:47.137Z,50.37
2022-10-17T05:13:10.207Z,50.49
2022-10-17T05:13:32.716Z,50.12
2022-10-17T05:13:57.975Z,50.18
2022-10-17T05:14:19.601Z,50.14
2022-10-17T05:14:41.302Z,50.06
2022-10-17T05:15:02.897Z,50.43
2022-10-17T05:15:26.312Z,50.29
2022-10-17T05:15:49.617Z,50.49
2022-10-17T05:16:11.218Z,50.50
2022-10-17T05:16:32.881Z,50.50
2022-10-17T05:16:55.609Z,50.42
2022-10-17T05:17:17.306Z,50.40
2022-10-17T05:17:39.240Z,50.45
2022-10-17T05:18:01.941Z,50.38
2022-10-17T05:18:25.591Z,50.42
2022-10-17T05:18:52.712Z,50.33
2022-10-17T05:19:14.998Z,50.23
2022-10-17T05:19:41.158Z,50.24
2022-10-17T05:20:05.319Z,50.31
2022-10-17T05:20:28.529Z,50.17
2022-10-17T05:20:50.235Z,50.08
2022-10-17T05:21:12.822Z,50.22
2022-10-17T05:21:37.209Z,50.13
2022-10-17T05:21:59.672Z,50.26
2022-10-17T05:22:21.263Z,50.09
2022-10-17T05:22:44.681Z,50.42
2022-10-17T05:23:06.668Z,50.24
2022-10-17T05:23:33.987Z,50.22
2022-10-17T05:23:56.856Z,50.31
2022-10-17T05:24:18.478Z,50.40
2022-10-17T05:24:40.059Z,50.22
2022-10-17T05:25:01.658Z,50.57
2022-10-17T05:25:24.269Z,51.08
2022-10-17T05:25:46.836Z,51.01
2022-10-17T05:26:09.763Z,50.69
2022-10-17T05:26:31.369Z,50.62
2022-10-17T05:26:53.021Z,50.63
2022-10-17T05:27:15.583Z,50.72
2022-10-17T05:27:38.130Z,50.83
2022-10-17T05:27:59.752Z,50.69
2022-10-17T05:28:21.436Z,50.57
2022-10-17T05:28:44.184Z,50.46
2022-10-17T05:29:06.099Z,50.64
2022-10-17T05:29:32.039Z,50.37
2022-10-17T05:30:07.498Z,50.30
2022-10-17T05:30:35.168Z,50.33
2022-10-17T05:31:03.045Z,50.60
2022-10-17T05:31:24.649Z,50.61
2022-10-17T05:31:46.382Z,50.39
2022-10-17T05:32:08.932Z,50.44
2022-10-17T05:32:30.953Z,50.18
2022-10-17T05:32:55.581Z,50.65
2022-10-17T05:33:18.330Z,50.57
2022-10-17T05:33:40.805Z,50.58
2022-10-17T05:34:03.270Z,50.56
2022-10-17T05:34:27.336Z,50.40
2022-10-17T05:34:49.860Z,50.27
2022-10-17T05:35:11.881Z,50.48
2022-10-17T05:35:33.861Z,50.64
2022-10-17T05:35:56.384Z,50.42
2022-10-17T05:36:18.924Z,50.50
2022-10-17T05:36:40.560Z,50.49
2022-10-17T05:37:02.708Z,50.29
2022-10-17T05:37:24.523Z,50.36
2022-10-17T05:37:50.131Z,50.47
2022-10-17T05:38:13.070Z,50.41
2022-10-17T05:38:36.665Z,50.18
2022-10-17T05:38:59.222Z,50.36
2022-10-17T05:39:23.281Z,50.22
2022-10-17T05:39:50.647Z,50.17
2022-10-17T05:40:13.603Z,50.40
2022-10-17T05:40:35.974Z,50.41
2022-10-17T05:40:59.645Z,50.56
2022-10-17T05:41:22.919Z,50.35
2022-10-17T05:41:44.869Z,50.19
2022-10-17T05:42:07.630Z,50.25
2022-10-17T05:42:31.165Z,50.15
2022-10-17T05:42:53.163Z,50.22
2022-10-17T05:43:16.259Z,50.16
2022-10-17T05:43:38.713Z,50.09
2022-10-17T05:44:04.746Z,50.20
2022-10-17T05:44:36.725Z,50.11
2022-10-17T05:44:58.422Z,50.06
2022-10-17T05:45:21.980Z,50.04
2022-10-17T05:45:43.595Z,50.06
2022-10-17T05:46:11.092Z,50.18
2022-10-17T05:46:33.573Z,50.46
2022-10-17T05:46:56.197Z,50.34
2022-10-17T05:47:18.219Z,50.33
2022-10-17T05:47:40.326Z,50.48
2022-10-17T05:48:01.941Z,50.16
2022-10-17T05:48:25.291Z,50.54
2022-10-17T05:48:47.614Z,50.62
2022-10-17T05:49:15.070Z,51.05
2022-10-17T05:49:51.483Z,51.06
2022-10-17T05:50:17.359Z,50.88
2022-10-17T05:50:58.753Z,50.73
2022-10-17T05:51:21.423Z,50.76
2022-10-17T05:51:43.058Z,50.77
2022-10-17T05:52:05.069Z,50.76
2022-10-17T05:52:33.030Z,50.67
2022-10-17T05:53:02.936Z,50.65
2022-10-17T05:53:24.811Z,50.46
2022-10-17T05:53:47.653Z,50.73
2022-10-17T05:54:16.426Z,50.65
2022-10-17T05:54:38.004Z,50.59
2022-10-17T05:55:00.977Z,50.89
2022-10-17T05:55:23.170Z,50.80
2022-10-17T05:55:44.975Z,50.67
2022-10-17T05:56:10.545Z,50.44
2022-10-17T05:56:34.033Z,50.53
2022-10-17T05:56:56.324Z,50.62
2022-10-17T05:57:24.845Z,50.52
2022-10-17T05:57:47.515Z,50.34
2022-10-17T05:58:21.752Z,50.47
2022-10-17T05:58:50.609Z,50.27
2022-10-17T05:59:36.228Z,50.54
2022-10-17T06:00:02.566Z,50.53
2022-10-17T06:00:35.812Z,50.46
2022-10-17T06:00:59.965Z,50.59
2022-10-17T06:01:22.207Z,50.41
2022-10-17T06:01:43.812Z,50.40
2022-10-17T06:02:06.686Z,50.68
2022-10-17T06:02:29.632Z,50.56
2022-10-17T06:02:51.507Z,50.48
2022-10-17T06:03:14.309Z,50.45
2022-10-17T06:03:36.880Z,50.51
2022-10-17T06:04:00.453Z,50.49
2022-10-17T06:04:22.130Z,50.48
2022-10-17T06:04:46.007Z,50.43
2022-10-17T06:05:09.198Z,50.42
2022-10-17T06:05:31.045Z,50.43
2022-10-17T06:05:53.998Z,50.64
2022-10-17T06:06:18.383Z,50.27
2022-10-17T06:06:41.433Z,50.31
2022-10-17T06:07:05.126Z,50.50
2022-10-17T06:07:28.939Z,50.53
2022-10-17T06:07:52.448Z,50.50
2022-10-17T06:08:14.768Z,50.24
2022-10-17T06:08:37.757Z,50.20
2022-10-17T06:09:01.339Z,50.32
2022-10-17T06:09:28.409Z,50.39
2022-10-17T06:09:51.160Z,50.21
2022-10-17T06:10:14.985Z,50.13
2022-10-17T06:10:37.540Z,50.29
2022-10-17T06:10:59.161Z,50.36
2022-10-17T06:11:20.729Z,50.33
2022-10-17T06:11:43.670Z,50.23
2022-10-17T06:12:07.753Z,50.20
2022-10-17T06:12:29.658Z,50.28
2022-10-17T06:12:51.490Z,50.13
2022-10-17T06:13:13.786Z,50.36
2022-10-17T06:13:36.430Z,50.15
2022-10-17T06:14:05.265Z,49.90
2022-10-17T06:14:26.854Z,50.12
2022-10-17T06:14:53.096Z,49.90
2022-10-17T06:15:15.758Z,49.98
2022-10-17T06:15:41.161Z,49.96
2022-10-17T06:16:05.578Z,49.83
2022-10-17T06:16:28.471Z,50.11
2022-10-17T06:16:50.145Z,49.83
2022-10-17T06:17:15.799Z,49.94
2022-10-17T06:17:39.332Z,49.96
2022-10-17T06:18:00.940Z,49.87
2022-10-17T06:18:22.831Z,49.84
2022-10-17T06:18:44.466Z,49.96